Time;durP1;ratioP1;P1;durP2;ratioP2;P2;SDS_P1;SDS_P2;PMS_P1;PMS_P2;Temp;Humidity;BMP_temperature;BMP_pressure;BME280_temperature;BME280_humidity;BME280_pressure;Samples;Min_cycle;Max_cycle;Signal;HPM_P1;HPM_P2
2023/08/01 00:01:23;;;;;;;11.88;5.15;;;16.40;99.90;;;;;;5039886;28;20419;-85
2023/08/01 00:03:49;;;;;;;13.03;5.70;;;16.20;99.90;;;;;;5037268;28;20892;-85
2023/08/01 00:06:15;;;;;;;17.87;5.77;;;16.10;99.90;;;;;;5037811;28;20943;-84
2023/08/01 00:08:40;;;;;;;12.25;5.63;;;16.10;99.90;;;;;;5020782;28;20909;-85
2023/08/01 00:11:07;;;;;;;14.38;6.22;;;16.20;99.90;;;;;;5039183;28;20421;-85
2023/08/01 00:13:32;;;;;;;14.63;6.15;;;15.90;99.90;;;;;;5026003;28;20424;-84
2023/08/01 00:15:58;;;;;;;12.90;6.05;;;16.00;99.90;;;;;;5056744;28;20411;-85
2023/08/01 00:18:24;;;;;;;13.48;5.60;;;15.90;99.90;;;;;;5004987;28;20516;-84
2023/08/01 00:20:53;;;;;;;13.70;5.18;;;16.00;99.90;;;;;;5036806;28;20428;-84
2023/08/01 00:23:19;;;;;;;8.40;4.65;;;16.00;99.90;;;;;;5036390;28;20912;-85
2023/08/01 00:25:44;;;;;;;9.80;4.75;;;16.10;99.90;;;;;;5041365;28;20420;-84
2023/08/01 00:28:10;;;;;;;12.00;5.40;;;16.00;99.90;;;;;;5023402;28;20412;-84
2023/08/01 00:30:36;;;;;;;12.70;5.27;;;16.00;99.90;;;;;;5044320;28;20423;-85
2023/08/01 00:33:01;;;;;;;11.88;5.13;;;16.10;99.90;;;;;;5045735;28;20506;-84
2023/08/01 00:35:27;;;;;;;9.77;4.80;;;16.30;99.90;;;;;;5057338;28;20465;-85
2023/08/01 00:37:53;;;;;;;12.00;4.87;;;16.00;99.90;;;;;;5063844;28;20406;-84
2023/08/01 00:40:18;;;;;;;11.47;5.17;;;16.00;99.90;;;;;;5061094;28;20445;-84
2023/08/01 00:42:44;;;;;;;10.48;4.90;;;15.70;99.90;;;;;;5050171;28;20438;-84
2023/08/01 00:45:10;;;;;;;11.15;4.90;;;16.00;99.90;;;;;;5007600;28;20899;-85
2023/08/01 00:47:36;;;;;;;12.45;5.18;;;16.00;99.90;;;;;;5040628;28;20417;-85
2023/08/01 00:50:03;;;;;;;11.52;5.28;;;15.90;99.90;;;;;;5057547;28;20394;-85
2023/08/01 00:52:29;;;;;;;13.40;5.72;;;15.80;99.90;;;;;;5062471;28;20432;-85
2023/08/01 00:54:55;;;;;;;12.13;5.57;;;15.90;99.90;;;;;;5077440;28;20417;-85
2023/08/01 00:57:21;;;;;;;11.38;5.55;;;15.70;99.90;;;;;;5077941;28;20402;-85
2023/08/01 00:59:46;;;;;;;12.50;5.50;;;15.90;99.90;;;;;;5044017;28;20386;-84
2023/08/01 01:02:12;;;;;;;10.88;5.22;;;15.80;99.90;;;;;;5046817;28;20498;-84
2023/08/01 01:04:38;;;;;;;14.90;5.73;;;16.00;99.90;;;;;;5054998;28;20417;-84
2023/08/01 01:07:06;;;;;;;16.30;6.13;;;15.90;99.90;;;;;;5056595;28;20395;-83
2023/08/01 01:09:32;;;;;;;13.38;5.70;;;15.80;99.90;;;;;;5061275;28;20430;-84
2023/08/01 01:11:59;;;;;;;10.82;5.45;;;15.60;99.90;;;;;;5065558;28;20819;-84
2023/08/01 01:14:26;;;;;;;13.87;5.87;;;15.60;99.90;;;;;;5056906;28;20574;-84
2023/08/01 01:16:52;;;;;;;12.55;5.68;;;15.60;99.90;;;;;;5061022;28;20913;-85
2023/08/01 01:19:17;;;;;;;13.63;5.85;;;15.60;99.90;;;;;;5075195;28;20453;-85
2023/08/01 01:21:45;;;;;;;16.13;5.90;;;15.70;99.90;;;;;;5075057;28;20401;-85
2023/08/01 01:24:13;;;;;;;15.93;5.72;;;15.70;99.90;;;;;;5058398;28;20433;-85
2023/08/01 01:26:41;;;;;;;11.67;5.97;;;15.60;99.90;;;;;;5057277;28;20490;-85
2023/08/01 01:29:08;;;;;;;13.52;5.93;;;;;;;;;;5057192;28;20504;-85
2023/08/01 01:31:34;;;;;;;14.68;5.97;;;14.80;99.90;;;;;;5071478;28;20429;-85
2023/08/01 01:34:01;;;;;;;12.30;6.07;;;15.80;99.90;;;;;;5059624;28;20398;-85
2023/08/01 01:36:27;;;;;;;11.02;5.60;;;15.60;99.90;;;;;;5063508;28;20419;-85
2023/08/01 01:38:53;;;;;;;12.02;5.65;;;15.60;99.90;;;;;;5039027;28;20416;-85
2023/08/01 01:41:18;;;;;;;15.10;6.13;;;15.60;99.90;;;;;;5067922;28;20914;-85
2023/08/01 01:43:44;;;;;;;14.00;6.43;;;15.90;99.90;;;;;;5070325;28;20422;-86
2023/08/01 01:46:10;;;;;;;17.23;6.63;;;15.60;99.90;;;;;;5028832;28;20442;-85
2023/08/01 01:48:35;;;;;;;13.60;6.30;;;15.60;99.90;;;;;;5037215;28;20515;-85
2023/08/01 01:51:01;;;;;;;15.65;6.43;;;15.80;99.90;;;;;;5043587;28;20846;-85
2023/08/01 01:53:27;;;;;;;14.40;6.53;;;15.60;99.90;;;;;;5056843;28;20501;-85
2023/08/01 01:55:53;;;;;;;16.10;6.47;;;15.40;99.90;;;;;;5074910;28;20401;-84
2023/08/01 01:58:18;;;;;;;13.23;6.25;;;15.40;99.90;;;;;;5058453;28;20413;-84
2023/08/01 02:00:44;;;;;;;13.93;6.30;;;15.50;99.90;;;;;;5036087;28;20912;-84
2023/08/01 02:03:10;;;;;;;13.00;6.60;;;15.50;99.90;;;;;;5051130;28;20421;-85
2023/08/01 02:05:42;;;;;;;16.85;7.00;;;15.40;99.90;;;;;;5073974;28;20413;-84
2023/08/01 02:08:07;;;;;;;17.58;7.03;;;15.60;99.90;;;;;;5020043;28;20783;-83
2023/08/01 02:10:33;;;;;;;19.35;7.18;;;15.20;99.90;;;;;;5060583;28;20420;-84
2023/08/01 02:12:59;;;;;;;18.70;7.03;;;15.40;99.90;;;;;;5038945;28;20942;-84
2023/08/01 02:15:25;;;;;;;15.30;7.37;;;15.30;99.90;;;;;;5056976;28;20419;-84
2023/08/01 02:17:50;;;;;;;14.77;7.50;;;15.30;99.90;;;;;;5047530;28;20456;-84
2023/08/01 02:20:16;;;;;;;19.07;7.83;;;15.20;99.90;;;;;;5040879;28;20423;-84
2023/08/01 02:22:42;;;;;;;18.67;8.45;;;15.30;99.90;;;;;;5057750;28;20929;-84
2023/08/01 02:25:08;;;;;;;20.95;8.98;;;15.30;99.90;;;;;;5067538;28;20461;-84
2023/08/01 02:27:34;;;;;;;22.55;9.18;;;15.30;99.90;;;;;;5042622;28;20810;-85
2023/08/01 02:29:59;;;;;;;21.08;9.15;;;15.10;99.90;;;;;;5038287;28;20400;-85
2023/08/01 02:32:25;;;;;;;21.98;9.15;;;15.30;99.90;;;;;;5054080;28;20505;-85
2023/08/01 02:34:51;;;;;;;23.77;10.00;;;15.00;99.90;;;;;;5047627;28;20839;-85
2023/08/01 02:37:16;;;;;;;23.83;9.93;;;15.30;99.90;;;;;;5041202;28;20516;-85
2023/08/01 02:39:42;;;;;;;22.10;9.90;;;15.20;99.90;;;;;;5053048;28;20418;-85
2023/08/01 02:42:08;;;;;;;24.13;10.10;;;15.30;99.90;;;;;;5057768;28;20425;-85
2023/08/01 02:44:34;;;;;;;23.83;9.95;;;15.40;99.90;;;;;;5057195;28;20475;-85
2023/08/01 02:46:59;;;;;;;20.25;9.88;;;15.20;99.90;;;;;;5044257;28;20905;-86
2023/08/01 02:49:25;;;;;;;24.70;10.07;;;15.40;99.90;;;;;;5068608;28;20426;-86
2023/08/01 02:51:51;;;;;;;21.43;9.43;;;15.40;99.90;;;;;;5035208;28;20936;-85
2023/08/01 02:54:17;;;;;;;26.33;9.83;;;15.20;99.90;;;;;;5049526;28;20422;-86
2023/08/01 02:56:42;;;;;;;25.90;9.73;;;15.50;99.90;;;;;;5076091;28;20916;-85
2023/08/01 02:59:08;;;;;;;24.30;10.20;;;15.30;99.90;;;;;;5025550;28;20422;-85
2023/08/01 03:01:35;;;;;;;24.27;10.05;;;15.10;99.90;;;;;;5073852;28;20485;-85
2023/08/01 03:04:03;;;;;;;17.88;9.23;;;15.20;99.90;;;;;;5022803;28;20419;-85
2023/08/01 03:06:29;;;;;;;20.63;9.13;;;16.30;99.90;;;;;;5055453;28;20404;-85
2023/08/01 03:08:55;;;;;;;17.95;8.52;;;15.50;99.90;;;;;;5061830;28;20418;-85
2023/08/01 03:11:20;;;;;;;19.52;7.40;;;15.70;99.90;;;;;;5056909;28;20423;-85
2023/08/01 03:13:46;;;;;;;14.43;6.28;;;15.50;99.90;;;;;;5067422;28;20418;-85
2023/08/01 03:16:12;;;;;;;12.77;5.50;;;15.40;99.90;;;;;;5058346;28;20924;-86
2023/08/01 03:18:37;;;;;;;11.63;5.10;;;15.60;99.90;;;;;;5059197;28;20546;-85
2023/08/01 03:21:03;;;;;;;13.38;5.20;;;15.60;99.90;;;;;;5075884;28;20402;-84
2023/08/01 03:23:29;;;;;;;9.63;4.35;;;15.70;99.90;;;;;;5031265;28;20558;-85
2023/08/01 03:25:55;;;;;;;13.18;4.95;;;15.30;99.90;;;;;;5066119;28;20421;-84
2023/08/01 03:28:21;;;;;;;10.60;4.30;;;15.50;99.90;;;;;;5040243;28;20418;-84
2023/08/01 03:30:49;;;;;;;13.02;4.60;;;15.40;99.90;;;;;;5074882;28;20406;-84
2023/08/01 03:33:16;;;;;;;10.02;4.30;;;15.20;99.90;;;;;;5038928;28;20451;-85
2023/08/01 03:35:42;;;;;;;11.10;4.63;;;15.30;99.90;;;;;;5042290;28;20839;-84
2023/08/01 03:38:07;;;;;;;15.02;4.47;;;15.50;99.90;;;;;;5050541;28;20501;-84
2023/08/01 03:40:33;;;;;;;13.80;4.07;;;15.30;99.90;;;;;;5061909;28;20421;-84
2023/08/01 03:42:59;;;;;;;11.80;4.33;;;15.20;99.90;;;;;;5061722;28;20445;-84
2023/08/01 03:45:24;;;;;;;11.80;4.33;;;15.30;99.90;;;;;;5061179;28;20426;-86
2023/08/01 03:47:50;;;;;;;12.77;4.27;;;15.20;99.90;;;;;;5061690;28;20929;-85
2023/08/01 03:50:16;;;;;;;17.50;4.95;;;15.20;99.90;;;;;;5075146;28;20411;-85
2023/08/01 03:52:42;;;;;;;12.75;4.40;;;15.30;99.90;;;;;;5058555;28;20404;-84
2023/08/01 03:55:08;;;;;;;12.45;4.10;;;;;;;;;;5048163;28;20956;-85
2023/08/01 03:57:34;;;;;;;15.13;3.93;;;15.20;99.90;;;;;;5062508;28;20486;-85
2023/08/01 04:00:00;;;;;;;10.57;3.33;;;15.30;99.90;;;;;;5040152;28;20754;-84
2023/08/01 04:02:26;;;;;;;11.90;3.40;;;15.20;99.90;;;;;;5060093;28;20421;-84
2023/08/01 04:04:53;;;;;;;12.57;3.53;;;15.00;99.90;;;;;;5042956;28;21038;-84
2023/08/01 04:07:18;;;;;;;10.05;3.17;;;15.10;99.90;;;;;;5060919;28;20404;-84
2023/08/01 04:09:44;;;;;;;12.63;2.97;;;15.20;99.90;;;;;;5064366;28;20418;-84
2023/08/01 04:12:10;;;;;;;8.93;2.78;;;15.20;99.90;;;;;;5061577;28;20409;-84
2023/08/01 04:14:35;;;;;;;10.32;3.00;;;15.20;99.90;;;;;;5058043;28;20407;-84
2023/08/01 04:17:01;;;;;;;11.17;2.73;;;15.10;99.90;;;;;;5070107;28;20410;-84
2023/08/01 04:19:27;;;;;;;11.40;2.90;;;15.40;99.90;;;;;;5078036;28;20455;-84
2023/08/01 04:21:52;;;;;;;9.27;3.17;;;15.40;99.90;;;;;;5077880;28;20405;-84
2023/08/01 04:24:18;;;;;;;10.10;2.92;;;15.10;99.90;;;;;;5078301;28;20925;-83
2023/08/01 04:26:44;;;;;;;11.70;3.38;;;15.30;99.90;;;;;;5039499;28;21090;-84
2023/08/01 04:29:09;;;;;;;8.03;3.10;;;15.10;99.90;;;;;;5041214;28;20483;-84
2023/08/01 04:31:35;;;;;;;11.30;3.10;;;15.10;99.90;;;;;;5062577;28;20429;-84
2023/08/01 04:34:01;;;;;;;10.25;2.88;;;15.10;99.90;;;;;;5075583;28;20417;-82
2023/08/01 04:36:26;;;;;;;7.25;2.58;;;14.90;99.90;;;;;;5077253;28;20409;-83
2023/08/01 04:38:52;;;;;;;8.75;2.95;;;15.00;99.90;;;;;;5059092;28;20441;-83
2023/08/01 04:41:18;;;;;;;12.30;3.60;;;15.10;99.90;;;;;;5027949;28;20418;-83
2023/08/01 04:43:43;;;;;;;9.10;3.00;;;15.10;99.90;;;;;;5072205;28;20901;-82
2023/08/01 04:46:09;;;;;;;11.15;3.40;;;15.20;99.90;;;;;;5056513;28;20478;-83
2023/08/01 04:48:35;;;;;;;8.20;3.63;;;15.10;99.90;;;;;;5032736;28;20793;-83
2023/08/01 04:51:00;;;;;;;10.13;3.43;;;15.20;99.90;;;;;;5038022;28;20424;-84
2023/08/01 04:53:26;;;;;;;10.00;3.60;;;15.10;99.90;;;;;;5046174;28;20421;-83
2023/08/01 04:55:52;;;;;;;7.85;3.35;;;14.90;99.90;;;;;;5016826;28;20421;-84
2023/08/01 04:58:17;;;;;;;10.82;3.17;;;15.10;99.90;;;;;;5033522;28;20415;-83
2023/08/01 05:00:43;;;;;;;9.07;3.00;;;15.30;99.90;;;;;;5051476;28;20932;-83
2023/08/01 05:03:09;;;;;;;7.87;3.13;;;15.20;99.90;;;;;;5058934;28;20505;-83
2023/08/01 05:05:34;;;;;;;8.07;3.50;;;15.30;99.90;;;;;;5076955;28;20459;-84
2023/08/01 05:08:00;;;;;;;9.00;3.30;;;15.40;99.90;;;;;;5050190;28;20463;-83
2023/08/01 05:10:26;;;;;;;6.95;3.00;;;15.10;99.90;;;;;;5023100;28;20415;-83
2023/08/01 05:12:51;;;;;;;8.60;3.00;;;15.30;99.90;;;;;;5055422;28;20419;-83
2023/08/01 05:15:17;;;;;;;7.27;2.93;;;15.30;99.90;;;;;;5024597;28;20404;-84
2023/08/01 05:17:43;;;;;;;7.20;3.27;;;15.40;99.90;;;;;;5066028;28;20428;-85
2023/08/01 05:20:09;;;;;;;8.55;3.10;;;15.40;99.90;;;;;;5025082;28;20423;-84
2023/08/01 05:22:35;;;;;;;6.55;3.13;;;15.50;99.90;;;;;;5059029;28;20429;-83
2023/08/01 05:25:01;;;;;;;8.00;3.20;;;15.30;99.90;;;;;;5053059;28;20491;-83
2023/08/01 05:27:27;;;;;;;9.38;3.20;;;15.30;99.90;;;;;;5039994;28;20500;-83
2023/08/01 05:29:53;;;;;;;7.57;3.15;;;15.40;99.90;;;;;;5076304;28;20418;-83
2023/08/01 05:32:19;;;;;;;7.13;3.53;;;15.30;99.90;;;;;;5027763;28;20469;-84
2023/08/01 05:34:44;;;;;;;7.17;3.37;;;15.60;99.90;;;;;;5057877;28;20408;-83
2023/08/01 05:37:10;;;;;;;7.90;3.30;;;15.60;99.90;;;;;;5050101;28;20417;-83
2023/08/01 05:39:36;;;;;;;6.00;3.10;;;15.70;99.90;;;;;;5026955;28;20415;-83
2023/08/01 05:42:01;;;;;;;5.97;2.92;;;15.60;99.90;;;;;;5074466;28;20984;-83
2023/08/01 05:44:27;;;;;;;7.65;3.13;;;15.60;99.90;;;;;;5044579;28;20418;-83
2023/08/01 05:46:53;;;;;;;7.60;3.00;;;15.80;99.90;;;;;;5077972;28;20878;-84
2023/08/01 05:49:18;;;;;;;8.17;3.20;;;15.80;99.90;;;;;;5077899;28;20406;-84
2023/08/01 05:51:44;;;;;;;6.55;3.20;;;16.00;99.90;;;;;;5057026;28;20468;-84
2023/08/01 05:54:10;;;;;;;7.93;2.80;;;15.80;99.90;;;;;;5056990;28;20395;-83
2023/08/01 05:56:35;;;;;;;7.03;3.10;;;16.00;99.90;;;;;;5024373;28;20407;-83
2023/08/01 05:59:01;;;;;;;8.37;3.13;;;16.00;99.90;;;;;;5065199;28;20449;-82
2023/08/01 06:01:27;;;;;;;7.03;3.03;;;15.70;99.90;;;;;;5040347;28;20450;-82
2023/08/01 06:03:52;;;;;;;7.30;2.78;;;15.90;99.90;;;;;;5043758;28;20471;-83
2023/08/01 06:06:18;;;;;;;8.38;3.20;;;15.80;99.90;;;;;;5059961;28;20960;-83
2023/08/01 06:08:44;;;;;;;7.33;3.20;;;15.70;99.90;;;;;;5054662;28;20419;-82
2023/08/01 06:11:10;;;;;;;7.87;3.13;;;15.70;99.90;;;;;;5070796;28;20419;-82
2023/08/01 06:13:35;;;;;;;8.00;3.17;;;15.70;99.90;;;;;;5050243;28;20503;-82
2023/08/01 06:16:01;;;;;;;6.95;3.28;;;15.60;99.90;;;;;;5054983;28;20919;-81
2023/08/01 06:18:27;;;;;;;8.43;2.90;;;15.50;99.90;;;;;;5038870;28;20407;-82
2023/08/01 06:20:52;;;;;;;6.22;2.65;;;15.80;99.90;;;;;;5022246;28;20411;-82
2023/08/01 06:23:18;;;;;;;8.63;2.90;;;15.90;99.90;;;;;;5071741;28;20417;-83
2023/08/01 06:25:44;;;;;;;7.33;3.33;;;15.60;99.90;;;;;;5034692;28;20418;-83
2023/08/01 06:28:09;;;;;;;8.70;3.70;;;15.70;99.90;;;;;;5061665;28;20453;-83
2023/08/01 06:30:35;;;;;;;7.90;3.25;;;16.10;99.90;;;;;;5058646;28;20444;-83
2023/08/01 06:33:02;;;;;;;7.07;3.30;;;15.80;99.90;;;;;;5061837;28;20433;-83
2023/08/01 06:35:28;;;;;;;7.57;3.17;;;16.00;99.90;;;;;;5015324;28;20414;-83
2023/08/01 06:37:54;;;;;;;8.47;3.47;;;15.90;99.90;;;;;;5049548;28;20396;-82
2023/08/01 06:40:19;;;;;;;8.77;3.20;;;16.10;99.90;;;;;;5063606;28;20944;-81
2023/08/01 06:42:48;;;;;;;8.05;3.13;;;16.20;99.90;;;;;;5037194;28;20405;-85
2023/08/01 06:49:06;;;;;;;9.10;2.92;;;16.20;99.90;;;;;;5003702;28;20433;-83
2023/08/01 06:51:43;;;;;;;8.10;2.70;;;16.40;99.90;;;;;;4951041;28;20406;-80
2023/08/01 06:54:09;;;;;;;10.37;2.60;;;16.40;99.90;;;;;;4994867;28;20429;-82
2023/08/01 06:56:35;;;;;;;8.17;2.50;;;16.40;99.90;;;;;;5010727;28;20450;-82
2023/08/01 06:59:00;;;;;;;6.20;2.50;;;16.50;99.90;;;;;;4998410;28;20759;-82
2023/08/01 07:01:26;;;;;;;9.73;2.55;;;16.40;99.90;;;;;;4996109;28;20426;-81
2023/08/01 07:03:52;;;;;;;10.33;2.27;;;16.50;99.90;;;;;;5004826;28;20759;-85
2023/08/01 07:06:18;;;;;;;7.47;2.20;;;16.30;99.90;;;;;;4986405;28;20429;-86
2023/08/01 07:08:43;;;;;;;7.40;2.50;;;16.40;99.90;;;;;;4982606;28;20424;-85
2023/08/01 07:11:09;;;;;;;8.83;2.50;;;16.20;99.90;;;;;;4998666;28;20427;-85
2023/08/01 07:13:35;;;;;;;11.00;2.60;;;16.30;99.90;;;;;;5014279;28;20435;-85
2023/08/01 07:16:00;;;;;;;8.73;2.05;;;16.40;99.90;;;;;;5017903;28;20406;-85
2023/08/01 07:18:26;;;;;;;7.07;2.10;;;16.50;99.90;;;;;;4996424;28;20438;-85
2023/08/01 07:21:04;;;;;;;9.97;2.67;;;16.50;99.90;;;;;;5055949;28;20433;-84
2023/08/01 07:23:35;;;;;;;10.45;2.22;;;16.40;99.90;;;;;;5043914;28;20764;-84
2023/08/01 07:26:00;;;;;;;7.05;2.10;;;16.30;99.90;;;;;;5074423;28;20947;-84
2023/08/01 07:28:26;;;;;;;8.65;2.55;;;16.10;99.90;;;;;;5041288;28;20487;-83
2023/08/01 07:31:04;;;;;;;8.57;2.17;;;16.30;99.90;;;;;;5045290;28;20489;-84
2023/08/01 07:33:34;;;;;;;6.82;1.88;;;16.20;99.90;;;;;;5067400;28;20432;-83
2023/08/01 07:36:00;;;;;;;6.00;1.90;;;16.20;99.90;;;;;;5068522;28;20514;-84
2023/08/01 07:38:28;;;;;;;7.57;2.10;;;16.10;99.90;;;;;;5072078;28;20476;-85
2023/08/01 07:40:55;;;;;;;8.48;1.95;;;16.40;99.90;;;;;;5078246;28;20405;-83
2023/08/01 07:43:21;;;;;;;9.10;2.00;;;16.00;99.90;;;;;;5078568;28;20402;-83
2023/08/01 07:45:50;;;;;;;9.65;2.28;;;16.00;99.90;;;;;;5077406;28;20470;-83
2023/08/01 07:48:16;;;;;;;7.28;1.88;;;16.00;99.90;;;;;;5075360;28;20432;-83
2023/08/01 07:50:41;;;;;;;6.90;2.08;;;16.20;99.90;;;;;;5072456;28;20790;-85
2023/08/01 07:53:07;;;;;;;8.13;2.60;;;16.10;99.90;;;;;;5039524;28;20426;-86
2023/08/01 07:55:36;;;;;;;8.85;2.58;;;16.10;99.90;;;;;;5073767;28;20515;-85
2023/08/01 07:58:02;;;;;;;6.47;2.33;;;16.10;99.90;;;;;;5070370;28;20414;-86
2023/08/01 08:00:27;;;;;;;6.80;2.50;;;16.00;99.90;;;;;;5066410;28;20428;-85
2023/08/01 08:02:53;;;;;;;9.40;2.63;;;16.00;99.90;;;;;;5032925;28;20503;-85
2023/08/01 08:05:19;;;;;;;9.27;2.70;;;16.10;99.90;;;;;;5042520;28;20493;-84
2023/08/01 08:07:47;;;;;;;9.80;2.38;;;15.90;99.90;;;;;;5047139;28;20424;-83
2023/08/01 08:10:14;;;;;;;7.30;2.35;;;15.90;99.90;;;;;;5067090;28;20928;-85
2023/08/01 08:12:40;;;;;;;6.22;2.25;;;;;;;;;;5042872;28;20427;-86
2023/08/01 08:15:06;;;;;;;8.07;2.40;;;15.80;99.90;;;;;;5045122;28;20428;-85
2023/08/01 08:17:32;;;;;;;5.78;2.30;;;15.80;99.90;;;;;;5069830;28;20913;-86
2023/08/01 08:19:57;;;;;;;7.30;2.50;;;15.80;99.90;;;;;;5059008;28;20508;-87
2023/08/01 08:22:24;;;;;;;7.97;2.90;;;;;;;;;;5058719;28;20501;-85
2023/08/01 08:24:50;;;;;;;9.13;2.70;;;15.80;99.90;;;;;;5059672;28;20771;-87
2023/08/01 08:27:15;;;;;;;7.40;2.77;;;15.60;99.90;;;;;;5057656;28;20461;-87
2023/08/01 08:29:41;;;;;;;8.60;2.93;;;15.70;99.90;;;;;;5060596;28;20496;-87
2023/08/01 08:32:07;;;;;;;7.97;2.73;;;15.90;99.90;;;;;;5059735;28;20413;-85
2023/08/01 08:34:33;;;;;;;7.68;2.78;;;15.70;99.90;;;;;;5076485;28;20421;-85
2023/08/01 08:36:58;;;;;;;8.63;3.10;;;16.00;99.90;;;;;;5073134;28;20484;-83
2023/08/01 08:39:24;;;;;;;7.97;3.22;;;15.80;99.90;;;;;;5074888;28;20461;-83
2023/08/01 08:41:52;;;;;;;8.83;3.30;;;16.00;99.90;;;;;;5053450;28;20775;-83
2023/08/01 08:44:20;;;;;;;7.18;2.90;;;16.00;99.90;;;;;;5073739;28;20422;-83
2023/08/01 08:46:50;;;;;;;6.40;2.93;;;16.30;99.90;;;;;;5051348;28;20414;-83
2023/08/01 08:49:19;;;;;;;7.70;2.88;;;16.20;99.90;;;;;;5076749;28;20485;-82
2023/08/01 08:51:46;;;;;;;8.23;2.95;;;16.00;99.90;;;;;;5067519;28;20409;-82
2023/08/01 08:54:13;;;;;;;8.90;3.20;;;16.00;99.90;;;;;;5067732;28;20420;-82
2023/08/01 08:56:40;;;;;;;7.50;3.20;;;16.40;99.90;;;;;;5065835;28;20511;-82
2023/08/01 08:59:12;;;;;;;9.57;3.20;;;16.40;99.90;;;;;;5046471;28;20930;-83
2023/08/01 09:01:39;;;;;;;6.80;2.53;;;16.40;99.90;;;;;;5070305;28;20464;-83
2023/08/01 09:04:05;;;;;;;6.60;2.60;;;16.60;99.90;;;;;;5051368;28;20848;-83
2023/08/01 09:06:51;;;;;;;5.07;2.50;;;15.10;99.90;;;;;;5030061;28;20414;-83
2023/08/01 09:09:18;;;;;;;6.30;2.50;;;16.60;99.90;;;;;;5052118;28;20416;-83
2023/08/01 09:11:47;;;;;;;7.45;2.50;;;16.60;99.90;;;;;;5061747;28;20420;-84
2023/08/01 09:14:14;;;;;;;6.85;2.40;;;16.50;99.90;;;;;;5049731;28;20433;-83
2023/08/01 09:16:40;;;;;;;6.67;2.63;;;16.30;99.90;;;;;;5050488;28;20423;-82
2023/08/01 09:19:07;;;;;;;7.32;2.60;;;16.10;99.90;;;;;;5040715;28;20430;-84
2023/08/01 09:21:34;;;;;;;5.13;2.70;;;16.20;99.90;;;;;;5068278;28;20508;-83
2023/08/01 09:24:20;;;;;;;6.65;2.83;;;16.10;99.90;;;;;;5049480;28;20937;-83
2023/08/01 09:26:49;;;;;;;8.63;2.72;;;16.00;99.90;;;;;;5060486;28;20452;-84
2023/08/01 09:29:21;;;;;;;7.25;2.80;;;16.30;99.90;;;;;;5050036;28;20417;-87
2023/08/01 09:31:49;;;;;;;8.23;2.70;;;17.40;99.90;;;;;;5074150;28;20515;-84
2023/08/01 09:34:22;;;;;;;6.07;2.88;;;16.10;99.90;;;;;;5053096;28;20422;-84
2023/08/01 09:36:48;;;;;;;9.13;3.22;;;16.10;99.90;;;;;;5046996;28;20437;-83
2023/08/01 09:39:19;;;;;;;8.15;3.08;;;16.00;99.90;;;;;;5053600;28;20938;-84
2023/08/01 09:41:46;;;;;;;6.85;2.80;;;16.10;99.90;;;;;;5050415;28;20421;-83
2023/08/01 09:44:15;;;;;;;7.35;3.00;;;16.40;99.90;;;;;;5065227;28;20435;-84
2023/08/01 09:46:42;;;;;;;8.32;3.40;;;16.40;99.90;;;;;;5060673;28;20418;-84
2023/08/01 09:49:12;;;;;;;8.80;2.90;;;17.10;99.90;;;;;;5071339;28;20410;-84
2023/08/01 09:51:48;;;;;;;11.85;3.33;;;16.90;99.90;;;;;;5072676;28;20418;-84
2023/08/01 09:54:15;;;;;;;6.95;3.38;;;16.80;99.90;;;;;;5061020;28;20479;-81
2023/08/01 09:56:46;;;;;;;6.25;3.20;;;16.60;99.90;;;;;;5067310;28;20517;-84
2023/08/01 09:59:12;;;;;;;8.18;2.70;;;16.70;99.90;;;;;;5062406;28;20915;-82
2023/08/01 10:01:40;;;;;;;9.43;3.50;;;16.40;99.90;;;;;;5049737;28;21096;-82
2023/08/01 10:04:08;;;;;;;7.57;3.20;;;16.80;99.90;;;;;;5049768;28;20423;-83
2023/08/01 10:06:38;;;;;;;12.93;3.60;;;16.40;99.90;;;;;;5070700;28;20505;-81
2023/08/01 10:09:04;;;;;;;10.95;3.63;;;16.30;99.90;;;;;;5067577;28;20484;-82
2023/08/01 10:11:34;;;;;;;8.68;3.70;;;16.50;99.90;;;;;;5056972;28;20420;-82
2023/08/01 10:14:02;;;;;;;9.65;4.57;;;16.60;99.90;;;;;;5060669;28;20417;-82
2023/08/01 10:16:29;;;;;;;10.70;3.50;;;17.20;99.90;;;;;;5067279;28;20418;-81
2023/08/01 10:18:55;;;;;;;11.23;3.65;;;17.10;99.90;;;;;;5046386;28;20440;-82
2023/08/01 10:21:22;;;;;;;11.90;3.70;;;17.00;99.90;;;;;;5073379;28;20925;-82
2023/08/01 10:23:48;;;;;;;8.98;3.50;;;17.00;99.90;;;;;;5054799;28;20915;-82
2023/08/01 10:26:15;;;;;;;10.02;3.53;;;17.40;99.90;;;;;;5067176;28;20453;-82
2023/08/01 10:28:49;;;;;;;12.18;3.70;;;17.50;99.90;;;;;;5056518;28;20430;-83
2023/08/01 10:31:17;;;;;;;9.85;3.15;;;17.10;99.90;;;;;;5064379;28;20468;-81
2023/08/01 10:33:45;;;;;;;9.65;3.30;;;15.60;99.90;;;;;;5048762;28;20430;-81
2023/08/01 10:36:27;;;;;;;9.23;3.35;;;17.30;99.90;;;;;;5075450;28;20397;-82
2023/08/01 10:38:55;;;;;;;10.63;2.80;;;17.50;99.90;;;;;;5060765;28;20425;-81
2023/08/01 10:41:31;;;;;;;11.65;3.20;;;17.60;99.90;;;;;;5057088;28;20440;-82
2023/08/01 10:44:12;;;;;;;8.98;2.40;;;17.30;99.90;;;;;;5065376;28;20424;-83
2023/08/01 10:46:56;;;;;;;8.23;2.42;;;17.30;99.90;;;;;;5075527;28;20505;-83
2023/08/01 10:49:34;;;;;;;6.75;2.28;;;17.50;99.90;;;;;;5077287;28;20922;-83
2023/08/01 10:52:03;;;;;;;9.02;2.65;;;17.40;99.90;;;;;;5070292;28;20422;-82
2023/08/01 10:54:29;;;;;;;7.10;2.40;;;17.50;99.90;;;;;;5058319;28;20422;-83
2023/08/01 10:56:59;;;;;;;7.25;1.80;;;17.20;99.90;;;;;;5059377;28;20643;-83
2023/08/01 10:59:25;;;;;;;7.75;2.10;;;17.10;99.90;;;;;;5081519;28;20451;-83
2023/08/01 11:01:53;;;;;;;8.38;2.15;;;17.40;99.90;;;;;;5051306;28;20423;-83
2023/08/01 11:04:23;;;;;;;8.18;2.60;;;17.30;99.90;;;;;;5056494;28;20424;-83
2023/08/01 11:06:50;;;;;;;8.38;2.00;;;17.50;99.90;;;;;;5054749;28;20428;-83
2023/08/01 11:09:24;;;;;;;7.70;1.70;;;17.40;99.90;;;;;;5066865;28;20413;-82
2023/08/01 11:11:53;;;;;;;6.30;1.77;;;17.60;99.90;;;;;;5075781;28;20436;-82
2023/08/01 11:14:22;;;;;;;5.97;1.67;;;17.50;99.90;;;;;;5038210;28;20839;-81
2023/08/01 11:16:48;;;;;;;6.90;1.58;;;17.50;99.90;;;;;;5071894;28;20427;-83
2023/08/01 11:19:27;;;;;;;5.63;1.55;;;17.50;99.90;;;;;;5050552;28;20513;-83
2023/08/01 11:21:56;;;;;;;6.65;1.70;;;17.60;99.90;;;;;;5050995;28;20494;-83
2023/08/01 11:24:23;;;;;;;6.38;2.03;;;17.40;99.90;;;;;;5069674;28;20415;-83
2023/08/01 11:26:50;;;;;;;7.75;1.73;;;17.60;99.90;;;;;;5052767;28;20418;-83
2023/08/01 11:29:18;;;;;;;8.18;2.40;;;17.70;99.90;;;;;;5078627;28;20411;-83
2023/08/01 11:31:58;;;;;;;4.28;1.50;;;17.30;99.90;;;;;;5068915;28;20908;-84
2023/08/01 11:34:24;;;;;;;8.43;1.80;;;17.40;99.90;;;;;;5058253;28;20502;-83
2023/08/01 11:36:51;;;;;;;6.88;2.30;;;17.60;99.90;;;;;;5074860;28;20427;-83
2023/08/01 11:39:17;;;;;;;5.57;1.80;;;17.90;99.90;;;;;;5052769;28;20549;-83
2023/08/01 11:41:44;;;;;;;6.25;1.73;;;18.00;99.90;;;;;;5069489;28;20969;-83
2023/08/01 11:44:11;;;;;;;8.90;2.00;;;18.30;99.90;;;;;;5067907;28;20539;-83
2023/08/01 11:46:38;;;;;;;5.03;1.90;;;18.40;99.90;;;;;;5069544;28;20415;-81
2023/08/01 11:49:06;;;;;;;7.93;1.97;;;18.10;99.90;;;;;;5059074;28;20427;-82
2023/08/01 11:51:39;;;;;;;5.60;1.80;;;18.40;99.90;;;;;;5067651;28;21015;-83
2023/08/01 11:54:06;;;;;;;6.82;1.88;;;18.60;99.90;;;;;;5053134;28;20430;-81
2023/08/01 11:56:31;;;;;;;6.27;2.20;;;19.00;99.90;;;;;;5070296;28;20516;-81
2023/08/01 11:58:58;;;;;;;5.83;1.77;;;19.00;99.90;;;;;;5068726;28;20890;-82
2023/08/01 12:01:24;;;;;;;7.30;2.05;;;18.80;99.90;;;;;;5030564;28;20433;-83
2023/08/01 12:03:54;;;;;;;5.85;1.60;;;18.80;99.90;;;;;;5066310;28;20421;-83
2023/08/01 12:06:22;;;;;;;4.68;1.67;;;18.80;99.90;;;;;;5071790;28;20415;-83
2023/08/01 12:08:50;;;;;;;5.00;1.70;;;18.40;99.90;;;;;;5033565;28;20880;-82
2023/08/01 12:11:22;;;;;;;7.00;1.90;;;18.00;99.90;;;;;;5054239;28;20471;-82
2023/08/01 12:13:59;;;;;;;5.07;1.80;;;18.10;99.90;;;;;;5065198;28;20907;-83
2023/08/01 12:16:25;;;;;;;7.35;2.25;;;17.90;99.90;;;;;;5066914;28;20433;-83
2023/08/01 12:18:51;;;;;;;8.35;2.60;;;17.50;99.90;;;;;;5066007;28;20422;-84
2023/08/01 12:21:16;;;;;;;8.73;2.72;;;16.80;99.90;;;;;;5074267;28;20482;-83
2023/08/01 12:23:42;;;;;;;10.80;2.50;;;17.40;99.90;;;;;;5053827;28;21090;-83
2023/08/01 12:26:08;;;;;;;7.77;2.00;;;17.80;99.90;;;;;;5071604;28;20429;-83
2023/08/01 12:28:34;;;;;;;7.50;2.53;;;18.00;99.90;;;;;;5045099;28;20457;-83
2023/08/01 12:31:00;;;;;;;6.28;1.92;;;18.10;99.90;;;;;;5063758;28;20538;-82
2023/08/01 12:33:26;;;;;;;9.10;2.45;;;18.00;99.90;;;;;;5068748;28;20469;-84
2023/08/01 12:35:52;;;;;;;10.27;3.47;;;17.90;99.90;;;;;;5041967;28;20462;-84
2023/08/01 12:38:17;;;;;;;11.93;3.13;;;17.60;99.90;;;;;;5029670;28;20414;-84
2023/08/01 12:40:43;;;;;;;11.60;3.58;;;17.20;99.90;;;;;;5053090;28;20475;-84
2023/08/01 12:43:09;;;;;;;8.77;3.40;;;16.70;99.90;;;;;;5060755;28;20406;-83
2023/08/01 12:45:34;;;;;;;11.10;3.90;;;17.00;99.90;;;;;;5068837;28;20412;-82